Time;durP1;ratioP1;P1;durP2;ratioP2;P2;SDS_P1;SDS_P2;PMS_P1;PMS_P2;Temp;Humidity;BMP_temperature;BMP_pressure;BME280_temperature;BME280_humidity;BME280_pressure;Samples;Min_cycle;Max_cycle;Signal;HPM_P1;HPM_P2
2023/05/21 00:02:41;;;;;;;17.63;13.18;;;;;;;-140.66;100.00;55571.53;5095706;28;20448;-75
2023/05/21 00:05:27;;;;;;;18.92;13.93;;;;;;;-140.66;100.00;55571.53;5093362;28;20043;-75
2023/05/21 00:08:13;;;;;;;25.90;14.63;;;;;;;-140.66;100.00;55571.53;5094376;28;20036;-75
2023/05/21 00:10:59;;;;;;;18.73;14.05;;;;;;;-140.66;100.00;55571.53;5079293;28;20027;-76
2023/05/21 00:13:44;;;;;;;21.65;14.20;;;;;;;-140.66;100.00;55571.53;5080382;28;20039;-76
2023/05/21 00:16:30;;;;;;;21.83;14.88;;;;;;;-140.66;100.00;55571.53;5079783;28;20403;-76
2023/05/21 00:19:16;;;;;;;20.58;14.07;;;;;;;-140.66;100.00;55571.53;5079556;28;20020;-75
2023/05/21 00:22:02;;;;;;;19.50;13.45;;;;;;;-140.66;100.00;55571.53;5080344;28;20028;-76
2023/05/21 00:24:48;;;;;;;20.40;14.70;;;;;;;-140.66;100.00;55571.53;5094621;28;20042;-75
2023/05/21 00:27:34;;;;;;;21.55;14.63;;;;;;;-140.66;100.00;55571.53;5079458;28;20054;-76
2023/05/21 00:30:19;;;;;;;20.27;14.38;;;;;;;-140.66;100.00;55571.53;5094469;28;20024;-76
2023/05/21 00:33:06;;;;;;;22.17;14.27;;;;;;;-140.66;100.00;55571.53;5082737;28;20024;-76
2023/05/21 00:35:52;;;;;;;19.52;13.30;;;;;;;-140.66;100.00;55571.53;5100887;28;20364;-75
2023/05/21 00:38:37;;;;;;;18.92;13.82;;;;;;;-140.66;100.00;55571.53;5100633;28;20097;-75
2023/05/21 00:41:24;;;;;;;16.75;13.05;;;;;;;-140.66;100.00;55571.53;5100514;28;20035;-75
2023/05/21 00:44:12;;;;;;;19.13;13.18;;;;;;;-140.66;100.00;55571.53;5100753;28;20089;-75
2023/05/21 00:47:01;;;;;;;22.30;13.88;;;;;;;-140.66;100.00;55571.53;5074369;28;20096;-75
2023/05/21 00:49:50;;;;;;;19.73;13.80;;;;;;;-140.66;100.00;55571.53;5085157;28;20039;-75
2023/05/21 00:52:40;;;;;;;22.13;13.68;;;;;;;-140.66;100.00;55571.53;5076231;28;20338;-75
2023/05/21 00:55:26;;;;;;;21.67;14.52;;;;;;;-140.66;100.00;55571.53;5085192;28;20412;-75
2023/05/21 00:58:12;;;;;;;18.55;13.60;;;;;;;-140.66;100.00;55571.53;5086523;28;20016;-75
2023/05/21 01:01:02;;;;;;;23.02;14.18;;;;;;;-140.66;100.00;55571.53;5087533;28;20035;-76
2023/05/21 01:03:48;;;;;;;22.27;14.35;;;;;;;-140.66;100.00;55571.53;5101161;28;20070;-75
2023/05/21 01:06:33;;;;;;;21.73;13.20;;;;;;;-140.66;100.00;55571.53;5086132;28;20050;-76
2023/05/21 01:09:20;;;;;;;20.52;13.52;;;;;;;-140.66;100.00;55571.53;5085061;28;20062;-75
2023/05/21 01:12:07;;;;;;;21.58;14.32;;;;;;;-140.66;100.00;55571.53;5087432;28;20463;-75
2023/05/21 01:14:53;;;;;;;20.63;14.13;;;;;;;-140.66;100.00;55571.53;5087157;28;20028;-75
2023/05/21 01:17:40;;;;;;;22.00;13.85;;;;;;;-140.66;100.00;55571.53;5100442;28;20054;-75
2023/05/21 01:20:29;;;;;;;21.58;13.25;;;;;;;-140.66;100.00;55571.53;5099875;28;20038;-76
2023/05/21 01:23:16;;;;;;;17.77;13.80;;;;;;;-140.66;100.00;55571.53;5099596;28;20364;-76
2023/05/21 01:26:02;;;;;;;18.25;12.93;;;;;;;-140.66;100.00;55571.53;5099632;28;20337;-75
2023/05/21 01:28:48;;;;;;;21.38;13.10;;;;;;;-140.66;100.00;55571.53;5086013;28;20044;-76
2023/05/21 01:31:41;;;;;;;21.33;13.82;;;;;;;-140.66;100.00;55571.53;5099457;28;20024;-75
2023/05/21 01:34:37;;;;;;;21.65;13.60;;;;;;;-140.66;100.00;55571.53;5099715;28;20024;-75
2023/05/21 01:37:52;;;;;;;19.23;13.38;;;;;;;-140.66;100.00;55571.53;5086386;28;20084;-75
2023/05/21 01:40:46;;;;;;;23.02;13.80;;;;;;;-140.66;100.00;55571.53;5100375;28;20463;-76
2023/05/21 01:43:35;;;;;;;20.45;13.60;;;;;;;-140.66;100.00;55571.53;5099691;28;20035;-75
2023/05/21 01:46:25;;;;;;;18.40;13.48;;;;;;;-140.66;100.00;55571.53;5097610;28;20460;-75
2023/05/21 01:49:12;;;;;;;20.63;13.68;;;;;;;-140.66;100.00;55571.53;5096611;28;20024;-75
2023/05/21 01:51:58;;;;;;;20.35;13.98;;;;;;;-140.66;100.00;55571.53;5082440;28;20024;-75
2023/05/21 01:54:43;;;;;;;23.35;13.93;;;;;;;-140.66;100.00;55571.53;5097577;28;20058;-74
2023/05/21 01:57:29;;;;;;;21.05;13.57;;;;;;;-140.66;100.00;55571.53;5102453;28;20031;-72
2023/05/21 02:00:16;;;;;;;19.10;13.68;;;;;;;-140.66;100.00;55571.53;5110265;28;20380;-73
2023/05/21 02:03:02;;;;;;;25.95;14.18;;;;;;;-140.66;100.00;55571.53;5105059;28;20024;-75
2023/05/21 02:05:50;;;;;;;19.73;14.00;;;;;;;-140.66;100.00;55571.53;5083082;28;20383;-75
2023/05/21 02:08:37;;;;;;;18.92;13.98;;;;;;;-140.66;100.00;55571.53;5096738;28;20444;-76
2023/05/21 02:11:23;;;;;;;20.35;14.57;;;;;;;-140.66;100.00;55571.53;5083038;28;20039;-75
2023/05/21 02:14:09;;;;;;;19.60;14.60;;;;;;;-140.66;100.00;55571.53;5096866;28;20023;-75
2023/05/21 02:16:55;;;;;;;20.27;13.95;;;;;;;-140.66;100.00;55571.53;5096803;28;20067;-75
2023/05/21 02:19:43;;;;;;;19.77;14.20;;;;;;;-140.66;100.00;55571.53;5080694;28;20444;-75
2023/05/21 02:22:29;;;;;;;19.42;14.02;;;;;;;-140.66;100.00;55571.53;5083451;28;20065;-75
2023/05/21 02:25:17;;;;;;;22.40;16.00;;;;;;;-140.66;100.00;55571.53;5082179;28;20169;-75
2023/05/21 02:28:03;;;;;;;28.25;17.40;;;;;;;-140.66;100.00;55571.53;5095455;28;20044;-76
2023/05/21 02:30:48;;;;;;;23.17;15.45;;;;;;;-140.66;100.00;55571.53;5081899;28;20039;-76
2023/05/21 02:33:34;;;;;;;25.80;15.43;;;;;;;-140.66;100.00;55571.53;5100149;28;20023;-74
2023/05/21 02:36:20;;;;;;;19.52;14.25;;;;;;;-140.66;100.00;55571.53;5090775;28;20004;-74
2023/05/21 02:39:05;;;;;;;22.23;14.38;;;;;;;-140.66;100.00;55571.53;5104912;28;20020;-75
2023/05/21 02:41:52;;;;;;;20.65;14.38;;;;;;;-140.66;100.00;55571.53;5103814;28;20054;-74
2023/05/21 02:44:38;;;;;;;19.50;14.50;;;;;;;-140.66;100.00;55571.53;5084639;28;20024;-75
2023/05/21 02:47:24;;;;;;;20.35;14.07;;;;;;;-140.66;100.00;55571.53;5096015;28;20032;-75
2023/05/21 02:50:12;;;;;;;26.13;14.95;;;;;;;-140.66;100.00;55571.53;5080718;28;20089;-76
2023/05/21 02:53:01;;;;;;;23.30;14.82;;;;;;;-140.66;100.00;55571.53;5082318;28;20066;-75
2023/05/21 02:55:46;;;;;;;20.48;14.57;;;;;;;-140.66;100.00;55571.53;5079802;28;20452;-75
2023/05/21 02:58:32;;;;;;;21.98;14.30;;;;;;;-140.66;100.00;55571.53;5096007;28;20020;-75
2023/05/21 03:01:18;;;;;;;23.00;14.70;;;;;;;-140.66;100.00;55571.53;5095245;28;20448;-75
2023/05/21 03:04:04;;;;;;;25.30;14.63;;;;;;;-140.66;100.00;55571.53;5095924;28;20036;-75
2023/05/21 03:06:53;;;;;;;21.05;14.00;;;;;;;-140.66;100.00;55571.53;5081545;28;20038;-76
2023/05/21 03:09:43;;;;;;;22.85;13.93;;;;;;;-140.66;100.00;55571.53;5079811;28;20142;-75
2023/05/21 03:12:29;;;;;;;19.48;14.25;;;;;;;-140.66;100.00;55571.53;5095564;28;20035;-76
2023/05/21 03:15:14;;;;;;;24.33;15.20;;;;;;;-140.66;100.00;55571.53;5096486;28;20020;-75
2023/05/21 03:18:01;;;;;;;19.95;14.35;;;;;;;-140.66;100.00;55571.53;5081226;28;20058;-75
2023/05/21 03:20:47;;;;;;;19.85;15.50;;;;;;;-140.66;100.00;55571.53;5079434;28;20032;-76
2023/05/21 03:23:33;;;;;;;22.52;14.95;;;;;;;-140.66;100.00;55571.53;5094545;28;20028;-76
2023/05/21 03:26:21;;;;;;;19.77;14.60;;;;;;;-140.66;100.00;55571.53;5095887;28;20028;-75
2023/05/21 03:29:06;;;;;;;23.92;15.52;;;;;;;-140.66;100.00;55571.53;5079600;28;20055;-75
2023/05/21 03:31:53;;;;;;;23.10;14.40;;;;;;;-140.66;100.00;55571.53;5079782;28;20441;-75
2023/05/21 03:34:39;;;;;;;21.30;14.32;;;;;;;-140.66;100.00;55571.53;5080320;28;20081;-75
2023/05/21 03:37:24;;;;;;;25.67;15.82;;;;;;;-140.66;100.00;55571.53;5079317;28;20032;-75
2023/05/21 03:40:11;;;;;;;23.52;15.75;;;;;;;-140.66;100.00;55571.53;5079917;28;20035;-75
2023/05/21 03:42:56;;;;;;;23.63;15.25;;;;;;;-140.66;100.00;55571.53;5093936;28;20024;-77
2023/05/21 03:45:42;;;;;;;19.35;14.50;;;;;;;-140.66;100.00;55571.53;5094876;28;20066;-75
2023/05/21 03:48:28;;;;;;;27.35;15.15;;;;;;;-140.66;100.00;55571.53;5080236;28;20416;-76
2023/05/21 03:51:14;;;;;;;19.55;13.85;;;;;;;-140.66;100.00;55571.53;5094122;28;20032;-75
2023/05/21 03:54:00;;;;;;;19.48;14.98;;;;;;;-140.66;100.00;55571.53;5080134;28;20024;-75
2023/05/21 03:56:46;;;;;;;24.88;15.48;;;;;;;-140.66;100.00;55571.53;5079744;28;20106;-75
2023/05/21 03:59:32;;;;;;;21.27;14.32;;;;;;;-140.66;100.00;55571.53;5094395;28;20031;-75
2023/05/21 04:02:17;;;;;;;22.20;14.77;;;;;;;-140.66;100.00;55571.53;5094200;28;20084;-75
2023/05/21 04:05:03;;;;;;;20.65;15.07;;;;;;;-140.66;100.00;55571.53;5095063;28;20024;-75
2023/05/21 04:07:49;;;;;;;19.45;14.57;;;;;;;-140.66;100.00;55571.53;5093755;28;20036;-75
2023/05/21 04:10:35;;;;;;;21.30;14.80;;;;;;;-140.66;100.00;55571.53;5094482;28;20374;-76
2023/05/21 04:13:21;;;;;;;17.58;14.13;;;;;;;-140.66;100.00;55571.53;5095127;28;20028;-76
2023/05/21 04:16:08;;;;;;;21.52;14.82;;;;;;;-140.66;100.00;55571.53;5079823;28;20085;-75
2023/05/21 04:18:56;;;;;;;18.85;14.40;;;;;;;-140.66;100.00;55571.53;5093529;28;20028;-75
2023/05/21 04:21:43;;;;;;;19.83;15.25;;;;;;;-140.66;100.00;55571.53;5079249;28;20066;-75
2023/05/21 04:24:29;;;;;;;22.08;14.60;;;;;;;-140.66;100.00;55571.53;5080289;28;20042;-75
2023/05/21 04:27:15;;;;;;;20.40;15.23;;;;;;;-140.66;100.00;55571.53;5093115;28;20036;-76
2023/05/21 04:30:03;;;;;;;20.15;14.73;;;;;;;-140.66;100.00;55571.53;5094790;28;20046;-74
2023/05/21 04:32:48;;;;;;;24.08;15.57;;;;;;;-140.66;100.00;55571.53;5080022;28;20388;-76
2023/05/21 04:35:34;;;;;;;21.08;15.00;;;;;;;-140.66;100.00;55571.53;5094094;28;20028;-78
2023/05/21 04:38:20;;;;;;;22.58;15.23;;;;;;;-140.66;100.00;55571.53;5093520;28;20052;-74
2023/05/21 04:41:06;;;;;;;24.77;13.80;;;;;;;-140.66;100.00;55571.53;5094133;28;20032;-77
2023/05/21 04:43:54;;;;;;;17.40;14.38;;;;;;;-140.66;100.00;55571.53;5079809;28;20350;-76
2023/05/21 04:46:40;;;;;;;22.20;15.05;;;;;;;-140.66;100.00;55571.53;5095091;28;20066;-76
2023/05/21 04:49:26;;;;;;;19.80;13.30;;;;;;;-140.66;100.00;55571.53;5093325;28;20050;-77
2023/05/21 04:52:14;;;;;;;20.00;14.02;;;;;;;-140.66;100.00;55571.53;5080384;28;20016;-76
2023/05/21 04:55:00;;;;;;;20.42;13.27;;;;;;;-140.66;100.00;55571.53;5080380;28;20413;-76
2023/05/21 04:57:46;;;;;;;22.70;14.25;;;;;;;-140.66;100.00;55571.53;5094452;28;20024;-76
2023/05/21 05:00:33;;;;;;;24.17;13.95;;;;;;;-140.66;100.00;55571.53;5078950;28;20036;-76
2023/05/21 05:03:18;;;;;;;20.67;13.93;;;;;;;-140.66;100.00;55571.53;5080132;28;20030;-76
2023/05/21 05:06:04;;;;;;;23.13;14.02;;;;;;;-140.66;100.00;55571.53;5093169;28;20134;-75
2023/05/21 05:08:50;;;;;;;27.30;14.63;;;;;;;-140.66;100.00;55571.53;5078819;28;20020;-76
2023/05/21 05:11:36;;;;;;;21.55;14.65;;;;;;;-140.66;100.00;55571.53;5093252;28;20406;-76
2023/05/21 05:14:21;;;;;;;23.55;13.77;;;;;;;-140.66;100.00;55571.53;5079303;28;20085;-76
2023/05/21 05:17:09;;;;;;;22.58;14.13;;;;;;;-140.66;100.00;55571.53;5093984;28;20031;-74
2023/05/21 05:19:55;;;;;;;22.17;14.13;;;;;;;-140.66;100.00;55571.53;5082638;28;20385;-75
2023/05/21 05:22:40;;;;;;;23.33;14.55;;;;;;;-140.66;100.00;55571.53;5083228;28;20148;-75
2023/05/21 05:25:26;;;;;;;18.77;13.05;;;;;;;-140.66;100.00;55571.53;5082763;28;20023;-76
2023/05/21 05:28:12;;;;;;;17.70;13.68;;;;;;;-140.66;100.00;55571.53;5083594;28;20070;-75
2023/05/21 05:30:58;;;;;;;16.92;13.77;;;;;;;-140.66;100.00;55571.53;5084274;28;20059;-76
2023/05/21 05:33:43;;;;;;;18.42;14.52;;;;;;;-140.66;100.00;55571.53;5096559;28;20023;-75
2023/05/21 05:36:30;;;;;;;24.17;14.43;;;;;;;-140.66;100.00;55571.53;5099486;28;20056;-75
2023/05/21 05:39:16;;;;;;;25.30;14.02;;;;;;;-140.66;100.00;55571.53;5097718;28;20436;-77
2023/05/21 05:42:02;;;;;;;18.90;13.70;;;;;;;-140.66;100.00;55571.53;5097581;28;20055;-75
2023/05/21 05:44:48;;;;;;;22.92;14.43;;;;;;;-140.66;100.00;55571.53;5096419;28;20080;-75
2023/05/21 05:47:33;;;;;;;18.55;13.02;;;;;;;-140.66;100.00;55571.53;5071399;28;20042;-76
2023/05/21 05:50:19;;;;;;;24.35;13.48;;;;;;;-140.66;100.00;55571.53;5081412;28;20028;-75
2023/05/21 05:53:06;;;;;;;17.10;12.45;;;;;;;-140.66;100.00;55571.53;5098179;28;20024;-75
2023/05/21 05:55:52;;;;;;;15.95;12.15;;;;;;;-140.66;100.00;55571.53;5068514;28;20024;-75
2023/05/21 05:58:37;;;;;;;19.27;12.43;;;;;;;-140.66;100.00;55571.53;5082774;28;20024;-75
2023/05/21 06:01:23;;;;;;;18.42;13.35;;;;;;;-140.66;100.00;55571.53;5097594;28;20032;-76
2023/05/21 06:04:09;;;;;;;17.92;12.25;;;;;;;-140.66;100.00;55571.53;5080397;28;20111;-76
2023/05/21 06:06:59;;;;;;;22.35;12.15;;;;;;;-140.66;100.00;55571.53;5081251;28;20024;-75
2023/05/21 06:09:44;;;;;;;16.80;12.55;;;;;;;-140.66;100.00;55571.53;5095636;28;20546;-75
2023/05/21 06:12:30;;;;;;;15.50;11.77;;;;;;;-140.66;100.00;55571.53;5096718;28;20486;-75
2023/05/21 06:15:18;;;;;;;17.02;11.90;;;;;;;-140.66;100.00;55571.53;5096582;28;20028;-75
2023/05/21 06:18:03;;;;;;;16.92;11.82;;;;;;;-140.66;100.00;55571.53;5095999;28;20122;-75
2023/05/21 06:20:49;;;;;;;16.65;11.80;;;;;;;-140.66;100.00;55571.53;5082972;28;20070;-75
2023/05/21 06:23:36;;;;;;;12.75;10.25;;;;;;;-140.66;100.00;55571.53;5082710;28;20091;-75
2023/05/21 06:26:22;;;;;;;15.07;11.23;;;;;;;-140.66;100.00;55571.53;5082955;28;20094;-75
2023/05/21 06:29:08;;;;;;;15.15;10.75;;;;;;;-140.66;100.00;55571.53;5081225;28;20048;-75
2023/05/21 06:31:54;;;;;;;13.02;10.25;;;;;;;-140.66;100.00;55571.53;5082270;28;20067;-74
2023/05/21 06:34:43;;;;;;;16.50;10.35;;;;;;;-140.66;100.00;55571.53;5095373;28;20043;-76
2023/05/21 06:37:28;;;;;;;16.02;10.18;;;;;;;-140.66;100.00;55571.53;5096827;28;20098;-76
2023/05/21 06:40:14;;;;;;;14.95;9.75;;;;;;;-140.66;100.00;55571.53;5081993;28;20031;-76
2023/05/21 06:43:00;;;;;;;15.30;9.80;;;;;;;-140.66;100.00;55571.53;5095442;28;20058;-75
2023/05/21 06:45:46;;;;;;;17.13;9.85;;;;;;;-140.66;100.00;55571.53;5081837;28;20406;-76
2023/05/21 06:48:32;;;;;;;13.07;9.45;;;;;;;-140.66;100.00;55571.53;5082247;28;20028;-76
2023/05/21 06:51:21;;;;;;;18.63;9.55;;;;;;;-140.66;100.00;55571.53;5095380;28;20024;-76
2023/05/21 06:54:07;;;;;;;17.55;10.02;;;;;;;-140.66;100.00;55571.53;5096376;28;20080;-75
2023/05/21 06:56:52;;;;;;;14.13;9.20;;;;;;;-140.66;100.00;55571.53;5095888;28;20466;-76
2023/05/21 06:59:38;;;;;;;20.95;9.65;;;;;;;-140.66;100.00;55571.53;5095553;28;20023;-75
2023/05/21 07:02:24;;;;;;;17.13;9.32;;;;;;;-140.66;100.00;55571.53;5095689;28;20035;-76
2023/05/21 07:05:10;;;;;;;12.48;8.95;;;;;;;-140.66;100.00;55571.53;5095731;28;20059;-74
2023/05/21 07:07:56;;;;;;;12.93;8.63;;;;;;;-140.66;100.00;55571.53;5094787;28;20039;-76
2023/05/21 07:10:42;;;;;;;15.32;9.52;;;;;;;-140.66;100.00;55571.53;5095114;28;20028;-75
2023/05/21 07:13:28;;;;;;;15.05;8.98;;;;;;;-140.66;100.00;55571.53;5096008;28;20028;-76
2023/05/21 07:16:16;;;;;;;14.55;7.90;;;;;;;-140.66;100.00;55571.53;5079894;28;20093;-76
2023/05/21 07:19:02;;;;;;;14.35;8.30;;;;;;;-140.66;100.00;55571.53;5081112;28;20118;-75
2023/05/21 07:21:48;;;;;;;15.48;8.07;;;;;;;-140.66;100.00;55571.53;5095428;28;20487;-76
2023/05/21 07:24:34;;;;;;;11.40;7.60;;;;;;;-140.66;100.00;55571.53;5081368;28;20043;-75
2023/05/21 07:27:20;;;;;;;11.88;8.00;;;;;;;-140.66;100.00;55571.53;5095322;28;20044;-76
2023/05/21 07:30:06;;;;;;;14.65;7.70;;;;;;;-140.66;100.00;55571.53;5096553;28;20032;-76
2023/05/21 07:32:52;;;;;;;12.10;7.55;;;;;;;-140.66;100.00;55571.53;5080244;28;20363;-75
2023/05/21 07:35:38;;;;;;;14.13;8.00;;;;;;;-140.66;100.00;55571.53;5081338;28;20046;-75
2023/05/21 07:38:24;;;;;;;10.02;7.25;;;;;;;-140.66;100.00;55571.53;5080186;28;20028;-75
2023/05/21 07:41:09;;;;;;;10.57;7.57;;;;;;;-140.66;100.00;55571.53;5082045;28;20082;-75
2023/05/21 07:43:55;;;;;;;13.75;7.20;;;;;;;-140.66;100.00;55571.53;5079862;28;20028;-75
2023/05/21 07:46:41;;;;;;;8.65;7.05;;;;;;;-140.66;100.00;55571.53;5081185;28;20036;-75
2023/05/21 07:49:27;;;;;;;9.10;6.82;;;;;;;-140.66;100.00;55571.53;5095214;28;20380;-76
2023/05/21 07:52:13;;;;;;;8.60;6.95;;;;;;;-140.66;100.00;55571.53;5079453;28;20024;-76
2023/05/21 07:55:00;;;;;;;14.25;7.53;;;;;;;-140.66;100.00;55571.53;5095194;28;20058;-75
2023/05/21 07:57:45;;;;;;;10.73;7.05;;;;;;;-140.66;100.00;55571.53;5094653;28;20028;-75
2023/05/21 08:00:41;;;;;;;9.57;6.75;;;;;;;-140.66;100.00;55571.53;5094569;28;20035;-75
2023/05/21 08:03:29;;;;;;;11.63;6.65;;;;;;;-140.66;100.00;55571.53;5080508;28;20028;-75
2023/05/21 08:06:15;;;;;;;8.63;6.95;;;;;;;-140.66;100.00;55571.53;5095124;28;20110;-76
2023/05/21 08:09:01;;;;;;;12.45;7.03;;;;;;;-140.66;100.00;55571.53;5094725;28;20035;-76
2023/05/21 08:11:46;;;;;;;10.23;6.28;;;;;;;-140.66;100.00;55571.53;5095221;28;20058;-75
2023/05/21 08:14:32;;;;;;;10.43;6.03;;;;;;;-140.66;100.00;55571.53;5079735;28;20032;-76
2023/05/21 08:17:18;;;;;;;10.15;6.78;;;;;;;-140.66;100.00;55571.53;5094823;28;20097;-75
2023/05/21 08:20:04;;;;;;;10.35;6.15;;;;;;;-140.66;100.00;55571.53;5094280;28;20028;-75
2023/05/21 08:22:50;;;;;;;9.38;5.85;;;;;;;-140.66;100.00;55571.53;5094792;28;20440;-76
2023/05/21 08:25:36;;;;;;;13.15;6.55;;;;;;;-140.66;100.00;55571.53;5093949;28;20020;-75
2023/05/21 08:28:22;;;;;;;11.00;6.60;;;;;;;-140.66;100.00;55571.53;5080897;28;20044;-75
2023/05/21 08:31:08;;;;;;;11.10;5.88;;;;;;;-140.66;100.00;55571.53;5094374;28;20036;-74
2023/05/21 08:33:55;;;;;;;7.53;5.90;;;;;;;-140.66;100.00;55571.53;5080740;28;20027;-75
2023/05/21 08:36:42;;;;;;;9.10;5.72;;;;;;;-140.66;100.00;55571.53;5079053;28;20020;-74
2023/05/21 08:39:27;;;;;;;9.50;6.65;;;;;;;-140.66;100.00;55571.53;5094742;28;20040;-75
2023/05/21 08:42:29;;;;;;;9.13;6.03;;;;;;;-140.66;100.00;55571.53;5091552;28;20113;-75
2023/05/21 08:45:19;;;;;;;8.85;6.25;;;;;;;-140.66;100.00;55571.53;5101944;28;20031;-77
2023/05/21 08:48:09;;;;;;;9.55;6.00;;;;;;;-140.66;100.00;55571.53;5095111;28;20028;-75
2023/05/21 08:50:54;;;;;;;6.93;5.93;;;;;;;-140.66;100.00;55571.53;5093906;28;20061;-75
2023/05/21 08:53:41;;;;;;;12.80;6.28;;;;;;;-140.66;100.00;55571.53;5081834;28;20028;-76
2023/05/21 08:56:30;;;;;;;8.95;6.00;;;;;;;-140.66;100.00;55571.53;5083788;28;20024;-75
2023/05/21 08:59:17;;;;;;;13.38;6.43;;;;;;;-140.66;100.00;55571.53;5083706;28;20028;-75
2023/05/21 09:02:03;;;;;;;8.93;5.95;;;;;;;-140.66;100.00;55571.53;5104375;28;20024;-76
2023/05/21 09:04:55;;;;;;;9.63;6.35;;;;;;;-140.66;100.00;55571.53;5084402;28;20055;-74
2023/05/21 09:07:53;;;;;;;11.15;6.03;;;;;;;-140.66;100.00;55571.53;5099512;28;20108;-75
2023/05/21 09:10:45;;;;;;;12.85;7.07;;;;;;;-140.66;100.00;55571.53;5098955;28;20459;-75
2023/05/21 09:13:32;;;;;;;15.23;6.20;;;;;;;-140.66;100.00;55571.53;5097387;28;20397;-75
2023/05/21 09:16:18;;;;;;;10.00;6.32;;;;;;;-140.66;100.00;55571.53;5097134;28;20024;-75
2023/05/21 09:19:03;;;;;;;8.57;6.03;;;;;;;-140.66;100.00;55571.53;5083542;28;20460;-76
2023/05/21 09:21:52;;;;;;;14.27;8.35;;;;;;;-140.66;100.00;55571.53;5097906;28;20027;-76
2023/05/21 09:24:38;;;;;;;10.35;7.50;;;;;;;-140.66;100.00;55571.53;5099342;28;20054;-76
2023/05/21 09:27:23;;;;;;;8.70;6.10;;;;;;;-140.66;100.00;55571.53;5101346;28;20101;-75
2023/05/21 09:30:12;;;;;;;10.88;6.47;;;;;;;-140.66;100.00;55571.53;5100195;28;20028;-74
2023/05/21 09:32:58;;;;;;;13.15;7.18;;;;;;;-140.66;100.00;55571.53;5100105;28;20047;-76
2023/05/21 09:35:45;;;;;;;9.70;6.35;;;;;;;-140.66;100.00;55571.53;5090631;28;20032;-75
2023/05/21 09:38:32;;;;;;;12.23;6.65;;;;;;;-140.66;100.00;55571.53;5100811;28;20020;-75
2023/05/21 09:41:19;;;;;;;11.57;6.30;;;;;;;-140.66;100.00;55571.53;5098155;28;20372;-76
2023/05/21 09:44:05;;;;;;;15.43;6.13;;;;;;;-140.66;100.00;55571.53;5099938;28;20110;-76
2023/05/21 09:46:57;;;;;;;7.38;5.43;;;;;;;-140.66;100.00;55571.53;5098522;28;20420;-76
2023/05/21 09:49:43;;;;;;;9.68;5.53;;;;;;;-140.66;100.00;55571.53;5084191;28;20028;-75
2023/05/21 09:52:29;;;;;;;9.82;5.60;;;;;;;-140.66;100.00;55571.53;5099018;28;20050;-75
2023/05/21 09:55:15;;;;;;;11.52;5.80;;;;;;;-140.66;100.00;55571.53;5098029;28;20043;-75
2023/05/21 09:58:03;;;;;;;13.07;5.60;;;;;;;-140.66;100.00;55571.53;5084308;28;20501;-75
2023/05/21 10:00:49;;;;;;;8.48;5.60;;;;;;;-140.66;100.00;55571.53;5083430;28;20019;-75
2023/05/21 10:03:38;;;;;;;12.70;5.97;;;;;;;-140.66;100.00;55571.53;5084115;28;20066;-75
2023/05/21 10:06:29;;;;;;;6.68;5.43;;;;;;;-140.66;100.00;55571.53;5096882;28;20119;-76
2023/05/21 10:09:17;;;;;;;8.27;5.80;;;;;;;-140.66;100.00;55571.53;5082476;28;20032;-75
2023/05/21 10:12:04;;;;;;;14.73;5.40;;;;;;;-140.66;100.00;55571.53;5097518;28;20043;-75
2023/05/21 10:15:02;;;;;;;7.55;5.63;;;;;;;-140.66;100.00;55571.53;5096902;28;20028;-75
2023/05/21 10:17:49;;;;;;;7.95;5.75;;;;;;;-140.66;100.00;55571.53;5082382;28;20028;-75
2023/05/21 10:20:36;;;;;;;10.73;6.15;;;;;;;-140.66;100.00;55571.53;5083522;28;20448;-75
2023/05/21 10:23:23;;;;;;;12.23;5.68;;;;;;;-140.66;100.00;55571.53;5081914;28;20032;-76
2023/05/21 10:26:10;;;;;;;8.65;5.40;;;;;;;-140.66;100.00;55571.53;5081038;28;20364;-76
2023/05/21 10:28:58;;;;;;;15.07;5.85;;;;;;;-140.66;100.00;55571.53;5095441;28;20040;-76
2023/05/21 10:31:48;;;;;;;11.25;5.22;;;;;;;-140.66;100.00;55571.53;5075991;28;20038;-75
2023/05/21 10:34:36;;;;;;;8.57;4.80;;;;;;;-140.66;100.00;55571.53;5097299;28;20043;-76
2023/05/21 10:37:25;;;;;;;12.65;5.10;;;;;;;-140.66;100.00;55571.53;5081934;28;20035;-75
2023/05/21 10:40:12;;;;;;;9.48;5.28;;;;;;;-140.66;100.00;55571.53;5084611;28;20031;-75
2023/05/21 10:43:25;;;;;;;11.98;5.75;;;;;;;-140.66;100.00;55571.53;5081892;28;20059;-75
2023/05/21 10:46:15;;;;;;;8.65;5.30;;;;;;;-140.66;100.00;55571.53;5099535;28;20051;-75
2023/05/21 10:49:10;;;;;;;8.63;5.55;;;;;;;-140.66;100.00;55571.53;5098476;28;20043;-73
2023/05/21 10:52:48;;;;;;;10.38;5.30;;;;;;;-140.66;100.00;55571.53;5100271;28;20355;-72
2023/05/21 10:55:46;;;;;;;11.75;5.30;;;;;;;-140.66;100.00;55571.53;5068791;28;20531;-75
2023/05/21 10:58:38;;;;;;;7.75;5.50;;;;;;;-140.66;100.00;55571.53;5102918;28;20478;-75
2023/05/21 11:01:32;;;;;;;10.20;5.40;;;;;;;-140.66;100.00;55571.53;5099326;28;20414;-75
2023/05/21 11:04:22;;;;;;;7.28;5.25;;;;;;;-140.66;100.00;55571.53;5086411;28;20039;-76
2023/05/21 11:07:08;;;;;;;10.55;5.53;;;;;;;-140.66;100.00;55571.53;5088291;28;20055;-76
2023/05/21 11:10:37;;;;;;;8.82;5.85;;;;;;;-140.66;100.00;55571.53;5086434;28;20028;-74
2023/05/21 11:13:25;;;;;;;13.93;4.95;;;;;;;-140.66;100.00;55571.53;5102098;28;20089;-74
2023/05/21 11:16:17;;;;;;;13.27;4.88;;;;;;;-140.66;100.00;55571.53;5103242;28;20356;-76
2023/05/21 11:19:03;;;;;;;6.65;5.00;;;;;;;-140.66;100.00;55571.53;5103004;28;20034;-75
2023/05/21 11:21:52;;;;;;;9.80;5.30;;;;;;;-140.66;100.00;55571.53;5095846;28;20016;-75
2023/05/21 11:24:40;;;;;;;12.90;5.22;;;;;;;-140.66;100.00;55571.53;5105434;28;20038;-76
2023/05/21 11:27:44;;;;;;;5.75;4.82;;;;;;;-140.66;100.00;55571.53;5097714;28;20067;-75
2023/05/21 11:30:29;;;;;;;8.18;4.90;;;;;;;-140.66;100.00;55571.53;5095410;28;20337;-76
2023/05/21 11:33:18;;;;;;;7.03;4.75;;;;;;;-140.66;100.00;55571.53;5096438;28;20097;-75
2023/05/21 11:36:11;;;;;;;8.25;5.13;;;;;;;-140.66;100.00;55571.53;5097443;28;20478;-75
2023/05/21 11:39:12;;;;;;;6.45;5.13;;;;;;;-140.66;100.00;55571.53;5082748;28;20028;-76
2023/05/21 11:41:58;;;;;;;7.75;5.00;;;;;;;-140.66;100.00;55571.53;5095633;28;20081;-74
2023/05/21 11:44:46;;;;;;;11.10;5.47;;;;;;;-140.66;100.00;55571.53;5100692;28;20038;-74
2023/05/21 11:47:32;;;;;;;8.60;5.05;;;;;;;-140.66;100.00;55571.53;5098237;28;20028;-77
2023/05/21 11:50:19;;;;;;;10.18;5.18;;;;;;;-140.66;100.00;55571.53;5087084;28;20024;-76
2023/05/21 11:53:06;;;;;;;14.15;4.97;;;;;;;-140.66;100.00;55571.53;5096953;28;20117;-75
2023/05/21 11:55:56;;;;;;;13.25;4.90;;;;;;;-140.66;100.00;55571.53;5096489;28;20165;-74
2023/05/21 11:58:41;;;;;;;6.97;4.85;;;;;;;-140.66;100.00;55571.53;5096136;28;20417;-76
2023/05/21 12:01:29;;;;;;;9.70;5.38;;;;;;;-140.66;100.00;55571.53;5088045;28;20024;-74
2023/05/21 12:04:15;;;;;;;13.65;5.32;;;;;;;-140.66;100.00;55571.53;5086905;28;20039;-75
2023/05/21 12:07:08;;;;;;;8.13;5.28;;;;;;;-140.66;100.00;55571.53;5084218;28;20126;-75
2023/05/21 12:09:54;;;;;;;7.05;4.93;;;;;;;-140.66;100.00;55571.53;5102567;28;20080;-78
2023/05/21 12:12:40;;;;;;;6.30;4.78;;;;;;;-140.66;100.00;55571.53;5087868;28;20036;-75
2023/05/21 12:15:26;;;;;;;11.00;5.65;;;;;;;-140.66;100.00;55571.53;5091317;28;20012;-74
2023/05/21 12:18:15;;;;;;;8.40;5.00;;;;;;;-140.66;100.00;55571.53;5084084;28;20135;-76
2023/05/21 12:21:01;;;;;;;11.95;5.10;;;;;;;-140.66;100.00;55571.53;5084311;28;20432;-74
2023/05/21 12:23:47;;;;;;;13.55;5.40;;;;;;;-140.66;100.00;55571.53;5082387;28;20093;-79
2023/05/21 12:26:34;;;;;;;13.82;5.03;;;;;;;-140.66;100.00;55571.53;5094369;28;20038;-79
2023/05/21 12:29:22;;;;;;;11.05;5.20;;;;;;;-140.66;100.00;55571.53;5102439;28;20047;-80
2023/05/21 12:32:11;;;;;;;7.40;5.00;;;;;;;-140.66;100.00;55571.53;5104721;28;20032;-78